sensor_id;sensor_type;location;lat;lon;timestamp;P1;durP1;ratioP1;P2;durP2;ratioP2
22565;SDS011;11449;51.330;19.378;2022-10-16T00:02:59;101.82;;;19.87;;
22565;SDS011;11449;51.330;19.378;2022-10-16T00:08:00;112.15;;;20.32;;
22565;SDS011;11449;51.330;19.378;2022-10-16T00:13:03;111.55;;;20.95;;
22565;SDS011;11449;51.330;19.378;2022-10-16T00:18:05;62.93;;;14.68;;
22565;SDS011;11449;51.330;19.378;2022-10-16T00:23:06;54.08;;;13.72;;
22565;SDS011;11449;51.330;19.378;2022-10-16T00:28:07;69.00;;;14.75;;
22565;SDS011;11449;51.330;19.378;2022-10-16T00:33:08;77.37;;;14.75;;
22565;SDS011;11449;51.330;19.378;2022-10-16T00:38:09;76.65;;;15.72;;
22565;SDS011;11449;51.330;19.378;2022-10-16T00:43:31;70.95;;;14.80;;
22565;SDS011;11449;51.330;19.378;2022-10-16T00:48:16;105.30;;;18.77;;
22565;SDS011;11449;51.330;19.378;2022-10-16T00:53:17;110.92;;;19.30;;
22565;SDS011;11449;51.330;19.378;2022-10-16T00:58:20;92.55;;;17.07;;
22565;SDS011;11449;51.330;19.378;2022-10-16T01:03:26;116.50;;;19.70;;
22565;SDS011;11449;51.330;19.378;2022-10-16T01:08:33;103.38;;;18.30;;
22565;SDS011;11449;51.330;19.378;2022-10-16T01:13:35;87.75;;;17.75;;
22565;SDS011;11449;51.330;19.378;2022-10-16T01:18:49;81.42;;;15.72;;
22565;SDS011;11449;51.330;19.378;2022-10-16T01:29:12;74.65;;;15.98;;
22565;SDS011;11449;51.330;19.378;2022-10-16T01:34:16;107.03;;;19.95;;
22565;SDS011;11449;51.330;19.378;2022-10-16T01:39:19;107.22;;;20.12;;
22565;SDS011;11449;51.330;19.378;2022-10-16T01:44:25;117.60;;;21.37;;
22565;SDS011;11449;51.330;19.378;2022-10-16T01:49:24;124.82;;;23.42;;
22565;SDS011;11449;51.330;19.378;2022-10-16T01:54:27;109.52;;;21.68;;
22565;SDS011;11449;51.330;19.378;2022-10-16T01:59:29;78.65;;;18.32;;
22565;SDS011;11449;51.330;19.378;2022-10-16T02:09:35;74.50;;;19.90;;
22565;SDS011;11449;51.330;19.378;2022-10-16T02:14:37;75.35;;;18.65;;
22565;SDS011;11449;51.330;19.378;2022-10-16T02:19:38;109.55;;;21.85;;
22565;SDS011;11449;51.330;19.378;2022-10-16T02:24:46;74.10;;;18.27;;
22565;SDS011;11449;51.330;19.378;2022-10-16T02:29:46;107.67;;;24.50;;
22565;SDS011;11449;51.330;19.378;2022-10-16T02:34:50;101.85;;;24.55;;
22565;SDS011;11449;51.330;19.378;2022-10-16T02:39:52;81.45;;;23.20;;
22565;SDS011;11449;51.330;19.378;2022-10-16T02:44:53;122.75;;;31.70;;
22565;SDS011;11449;51.330;19.378;2022-10-16T02:49:55;144.55;;;73.42;;
22565;SDS011;11449;51.330;19.378;2022-10-16T02:54:56;82.97;;;43.70;;
22565;SDS011;11449;51.330;19.378;2022-10-16T02:59:57;118.20;;;33.18;;
22565;SDS011;11449;51.330;19.378;2022-10-16T03:04:58;119.72;;;32.28;;
22565;SDS011;11449;51.330;19.378;2022-10-16T03:09:59;108.70;;;30.00;;
22565;SDS011;11449;51.330;19.378;2022-10-16T03:15:03;96.37;;;31.02;;
22565;SDS011;11449;51.330;19.378;2022-10-16T03:20:05;80.53;;;31.20;;
22565;SDS011;11449;51.330;19.378;2022-10-16T03:25:06;74.82;;;24.75;;
22565;SDS011;11449;51.330;19.378;2022-10-16T03:30:07;66.00;;;19.65;;
22565;SDS011;11449;51.330;19.378;2022-10-16T03:35:09;65.97;;;23.55;;
22565;SDS011;11449;51.330;19.378;2022-10-16T03:40:10;66.65;;;19.48;;
22565;SDS011;11449;51.330;19.378;2022-10-16T03:45:12;69.40;;;20.95;;
22565;SDS011;11449;51.330;19.378;2022-10-16T03:50:13;79.95;;;22.15;;
22565;SDS011;11449;51.330;19.378;2022-10-16T03:55:14;79.53;;;27.45;;
22565;SDS011;11449;51.330;19.378;2022-10-16T04:00:15;80.20;;;25.17;;
22565;SDS011;11449;51.330;19.378;2022-10-16T04:05:16;81.17;;;28.07;;
22565;SDS011;11449;51.330;19.378;2022-10-16T04:10:18;80.53;;;28.75;;
22565;SDS011;11449;51.330;19.378;2022-10-16T04:15:20;92.37;;;28.80;;
22565;SDS011;11449;51.330;19.378;2022-10-16T04:20:21;89.52;;;29.95;;
22565;SDS011;11449;51.330;19.378;2022-10-16T04:25:23;102.30;;;29.90;;
22565;SDS011;11449;51.330;19.378;2022-10-16T04:30:24;90.35;;;30.05;;
22565;SDS011;11449;51.330;19.378;2022-10-16T04:35:25;87.95;;;32.85;;
22565;SDS011;11449;51.330;19.378;2022-10-16T04:40:26;81.90;;;30.25;;
22565;SDS011;11449;51.330;19.378;2022-10-16T04:45:27;126.55;;;40.55;;
22565;SDS011;11449;51.330;19.378;2022-10-16T04:50:28;96.02;;;34.85;;
22565;SDS011;11449;51.330;19.378;2022-10-16T04:55:37;98.70;;;46.53;;
22565;SDS011;11449;51.330;19.378;2022-10-16T05:00:38;89.17;;;45.55;;
22565;SDS011;11449;51.330;19.378;2022-10-16T05:05:43;96.85;;;49.73;;
22565;SDS011;11449;51.330;19.378;2022-10-16T05:10:45;134.60;;;66.05;;
22565;SDS011;11449;51.330;19.378;2022-10-16T05:15:47;98.37;;;60.67;;
22565;SDS011;11449;51.330;19.378;2022-10-16T05:20:48;133.15;;;61.50;;
22565;SDS011;11449;51.330;19.378;2022-10-16T05:25:53;100.62;;;58.45;;
22565;SDS011;11449;51.330;19.378;2022-10-16T05:30:55;158.07;;;79.27;;
22565;SDS011;11449;51.330;19.378;2022-10-16T05:35:57;107.05;;;60.33;;
22565;SDS011;11449;51.330;19.378;2022-10-16T05:40:57;113.85;;;51.75;;
22565;SDS011;11449;51.330;19.378;2022-10-16T05:46:06;101.82;;;42.98;;
22565;SDS011;11449;51.330;19.378;2022-10-16T05:51:05;121.65;;;81.95;;
22565;SDS011;11449;51.330;19.378;2022-10-16T05:56:10;111.22;;;55.52;;
22565;SDS011;11449;51.330;19.378;2022-10-16T06:01:13;79.07;;;37.85;;
22565;SDS011;11449;51.330;19.378;2022-10-16T06:06:16;99.65;;;48.75;;
22565;SDS011;11449;51.330;19.378;2022-10-16T06:11:18;96.63;;;40.20;;
22565;SDS011;11449;51.330;19.378;2022-10-16T06:16:19;113.32;;;56.83;;
22565;SDS011;11449;51.330;19.378;2022-10-16T06:21:22;140.47;;;58.15;;
22565;SDS011;11449;51.330;19.378;2022-10-16T06:26:26;101.82;;;81.78;;
22565;SDS011;11449;51.330;19.378;2022-10-16T06:31:28;115.35;;;82.75;;
22565;SDS011;11449;51.330;19.378;2022-10-16T06:36:31;118.00;;;84.17;;
22565;SDS011;11449;51.330;19.378;2022-10-16T06:41:31;96.75;;;76.20;;
22565;SDS011;11449;51.330;19.378;2022-10-16T06:46:34;110.17;;;73.65;;
22565;SDS011;11449;51.330;19.378;2022-10-16T06:51:35;118.57;;;77.55;;
22565;SDS011;11449;51.330;19.378;2022-10-16T06:56:38;107.90;;;79.60;;
22565;SDS011;11449;51.330;19.378;2022-10-16T07:01:39;127.62;;;85.03;;
22565;SDS011;11449;51.330;19.378;2022-10-16T07:06:41;110.37;;;81.42;;
22565;SDS011;11449;51.330;19.378;2022-10-16T07:11:42;119.97;;;78.30;;
22565;SDS011;11449;51.330;19.378;2022-10-16T07:16:43;114.00;;;74.67;;
22565;SDS011;11449;51.330;19.378;2022-10-16T07:21:45;155.07;;;90.67;;
22565;SDS011;11449;51.330;19.378;2022-10-16T07:26:46;123.40;;;82.53;;
22565;SDS011;11449;51.330;19.378;2022-10-16T07:31:48;117.35;;;77.08;;
22565;SDS011;11449;51.330;19.378;2022-10-16T07:36:49;103.38;;;75.55;;
22565;SDS011;11449;51.330;19.378;2022-10-16T07:41:52;109.83;;;72.82;;
22565;SDS011;11449;51.330;19.378;2022-10-16T07:46:53;84.87;;;58.85;;
22565;SDS011;11449;51.330;19.378;2022-10-16T07:51:54;108.87;;;72.12;;
22565;SDS011;11449;51.330;19.378;2022-10-16T07:56:55;95.67;;;60.90;;
22565;SDS011;11449;51.330;19.378;2022-10-16T08:01:56;122.67;;;91.00;;
22565;SDS011;11449;51.330;19.378;2022-10-16T08:06:58;125.05;;;95.67;;
22565;SDS011;11449;51.330;19.378;2022-10-16T08:11:59;102.12;;;68.57;;
22565;SDS011;11449;51.330;19.378;2022-10-16T08:17:00;103.58;;;65.75;;
22565;SDS011;11449;51.330;19.378;2022-10-16T08:22:03;91.37;;;67.78;;
22565;SDS011;11449;51.330;19.378;2022-10-16T08:27:04;126.65;;;89.83;;
22565;SDS011;11449;51.330;19.378;2022-10-16T08:32:06;116.17;;;79.82;;
22565;SDS011;11449;51.330;19.378;2022-10-16T08:37:07;84.15;;;47.53;;
22565;SDS011;11449;51.330;19.378;2022-10-16T08:52:19;87.08;;;28.75;;
22565;SDS011;11449;51.330;19.378;2022-10-16T08:57:21;77.25;;;22.85;;
22565;SDS011;11449;51.330;19.378;2022-10-16T09:12:35;68.33;;;21.60;;
22565;SDS011;11449;51.330;19.378;2022-10-16T09:22:38;102.50;;;29.07;;
22565;SDS011;11449;51.330;19.378;2022-10-16T09:27:40;90.17;;;35.13;;
22565;SDS011;11449;51.330;19.378;2022-10-16T09:32:42;77.55;;;23.10;;
22565;SDS011;11449;51.330;19.378;2022-10-16T09:37:49;76.92;;;23.80;;
22565;SDS011;11449;51.330;19.378;2022-10-16T09:42:52;64.77;;;20.80;;
22565;SDS011;11449;51.330;19.378;2022-10-16T09:47:54;83.45;;;30.50;;
22565;SDS011;11449;51.330;19.378;2022-10-16T09:53:14;93.72;;;38.78;;
22565;SDS011;11449;51.330;19.378;2022-10-16T10:03:38;86.40;;;32.23;;
22565;SDS011;11449;51.330;19.378;2022-10-16T10:08:19;94.72;;;40.15;;
22565;SDS011;11449;51.330;19.378;2022-10-16T10:13:25;73.57;;;27.55;;
22565;SDS011;11449;51.330;19.378;2022-10-16T10:18:23;75.52;;;26.37;;
22565;SDS011;11449;51.330;19.378;2022-10-16T10:23:26;85.07;;;28.62;;
22565;SDS011;11449;51.330;19.378;2022-10-16T10:28:51;74.03;;;23.80;;
22565;SDS011;11449;51.330;19.378;2022-10-16T10:44:01;62.48;;;14.75;;
22565;SDS011;11449;51.330;19.378;2022-10-16T11:09:47;81.50;;;18.20;;
22565;SDS011;11449;51.330;19.378;2022-10-16T11:30:16;70.52;;;15.55;;
22565;SDS011;11449;51.330;19.378;2022-10-16T11:35:20;67.10;;;15.28;;
22565;SDS011;11449;51.330;19.378;2022-10-16T11:40:31;79.67;;;19.60;;
22565;SDS011;11449;51.330;19.378;2022-10-16T11:45:39;76.10;;;19.15;;
22565;SDS011;11449;51.330;19.378;2022-10-16T11:50:48;67.03;;;15.83;;
22565;SDS011;11449;51.330;19.378;2022-10-16T11:55:48;57.37;;;14.23;;
22565;SDS011;11449;51.330;19.378;2022-10-16T12:00:55;89.25;;;16.45;;
22565;SDS011;11449;51.330;19.378;2022-10-16T12:11:09;76.77;;;16.93;;
22565;SDS011;11449;51.330;19.378;2022-10-16T12:21:14;87.50;;;19.82;;
22565;SDS011;11449;51.330;19.378;2022-10-16T12:26:27;68.47;;;18.32;;
22565;SDS011;11449;51.330;19.378;2022-10-16T12:31:36;73.20;;;20.68;;
22565;SDS011;11449;51.330;19.378;2022-10-16T12:36:32;86.78;;;24.40;;
22565;SDS011;11449;51.330;19.378;2022-10-16T12:41:34;84.10;;;21.17;;
22565;SDS011;11449;51.330;19.378;2022-10-16T12:46:38;96.00;;;30.60;;
22565;SDS011;11449;51.330;19.378;2022-10-16T12:51:41;87.27;;;23.42;;
22565;SDS011;11449;51.330;19.378;2022-10-16T13:06:57;93.05;;;37.33;;
22565;SDS011;11449;51.330;19.378;2022-10-16T13:22:35;68.28;;;16.37;;
22565;SDS011;11449;51.330;19.378;2022-10-16T13:32:48;69.25;;;14.43;;
22565;SDS011;11449;51.330;19.378;2022-10-16T13:37:51;65.80;;;14.25;;
22565;SDS011;11449;51.330;19.378;2022-10-16T13:42:52;77.03;;;18.55;;
22565;SDS011;11449;51.330;19.378;2022-10-16T13:48:09;68.92;;;14.33;;
22565;SDS011;11449;51.330;19.378;2022-10-16T13:53:06;74.25;;;15.55;;
22565;SDS011;11449;51.330;19.378;2022-10-16T13:58:10;114.17;;;18.37;;
22565;SDS011;11449;51.330;19.378;2022-10-16T14:03:13;66.30;;;15.08;;
22565;SDS011;11449;51.330;19.378;2022-10-16T14:08:14;73.25;;;16.40;;
22565;SDS011;11449;51.330;19.378;2022-10-16T14:13:21;69.07;;;15.18;;
22565;SDS011;11449;51.330;19.378;2022-10-16T14:18:20;84.15;;;16.90;;
22565;SDS011;11449;51.330;19.378;2022-10-16T14:23:35;71.95;;;15.70;;
22565;SDS011;11449;51.330;19.378;2022-10-16T14:28:36;78.85;;;16.82;;
22565;SDS011;11449;51.330;19.378;2022-10-16T14:33:38;79.65;;;16.23;;
22565;SDS011;11449;51.330;19.378;2022-10-16T14:38:39;59.90;;;14.75;;
22565;SDS011;11449;51.330;19.378;2022-10-16T14:43:41;59.95;;;14.30;;
22565;SDS011;11449;51.330;19.378;2022-10-16T14:48:45;64.25;;;14.68;;
22565;SDS011;11449;51.330;19.378;2022-10-16T14:53:46;72.05;;;17.75;;
22565;SDS011;11449;51.330;19.378;2022-10-16T14:58:48;63.73;;;16.77;;
22565;SDS011;11449;51.330;19.378;2022-10-16T15:03:50;70.87;;;17.12;;
22565;SDS011;11449;51.330;19.378;2022-10-16T15:08:53;73.05;;;17.35;;
22565;SDS011;11449;51.330;19.378;2022-10-16T15:13:54;87.57;;;18.70;;
22565;SDS011;11449;51.330;19.378;2022-10-16T15:18:55;91.15;;;20.57;;
22565;SDS011;11449;51.330;19.378;2022-10-16T15:23:57;76.30;;;18.98;;
22565;SDS011;11449;51.330;19.378;2022-10-16T15:28:58;83.52;;;19.37;;
22565;SDS011;11449;51.330;19.378;2022-10-16T15:33:59;98.27;;;21.75;;
22565;SDS011;11449;51.330;19.378;2022-10-16T15:39:02;79.22;;;18.52;;
22565;SDS011;11449;51.330;19.378;2022-10-16T15:44:04;82.00;;;21.90;;
22565;SDS011;11449;51.330;19.378;2022-10-16T15:49:05;90.90;;;22.22;;
22565;SDS011;11449;51.330;19.378;2022-10-16T15:54:06;92.30;;;27.37;;
22565;SDS011;11449;51.330;19.378;2022-10-16T15:59:07;90.92;;;22.67;;
22565;SDS011;11449;51.330;19.378;2022-10-16T16:04:09;91.05;;;26.15;;
22565;SDS011;11449;51.330;19.378;2022-10-16T16:09:10;79.42;;;21.17;;
22565;SDS011;11449;51.330;19.378;2022-10-16T16:14:13;61.98;;;18.80;;
22565;SDS011;11449;51.330;19.378;2022-10-16T16:19:14;77.40;;;23.12;;
22565;SDS011;11449;51.330;19.378;2022-10-16T16:24:16;84.00;;;29.27;;
22565;SDS011;11449;51.330;19.378;2022-10-16T16:29:17;75.60;;;22.05;;
22565;SDS011;11449;51.330;19.378;2022-10-16T16:34:18;75.15;;;21.23;;
22565;SDS011;11449;51.330;19.378;2022-10-16T16:39:20;93.00;;;27.00;;
22565;SDS011;11449;51.330;19.378;2022-10-16T16:44:20;84.62;;;25.45;;
22565;SDS011;11449;51.330;19.378;2022-10-16T16:49:21;78.70;;;19.87;;
22565;SDS011;11449;51.330;19.378;2022-10-16T16:54:22;77.17;;;21.17;;
22565;SDS011;11449;51.330;19.378;2022-10-16T16:59:23;65.32;;;20.85;;
22565;SDS011;11449;51.330;19.378;2022-10-16T17:04:24;95.95;;;21.05;;
22565;SDS011;11449;51.330;19.378;2022-10-16T17:09:25;82.27;;;19.35;;
22565;SDS011;11449;51.330;19.378;2022-10-16T17:14:27;69.95;;;24.18;;
22565;SDS011;11449;51.330;19.378;2022-10-16T17:19:29;75.45;;;20.45;;
22565;SDS011;11449;51.330;19.378;2022-10-16T17:24:30;85.75;;;22.35;;
22565;SDS011;11449;51.330;19.378;2022-10-16T17:29:31;101.20;;;27.02;;
22565;SDS011;11449;51.330;19.378;2022-10-16T17:34:32;84.65;;;21.90;;
22565;SDS011;11449;51.330;19.378;2022-10-16T17:39:35;82.90;;;20.82;;
22565;SDS011;11449;51.330;19.378;2022-10-16T17:44:36;88.72;;;28.00;;
22565;SDS011;11449;51.330;19.378;2022-10-16T17:49:37;78.90;;;24.75;;
22565;SDS011;11449;51.330;19.378;2022-10-16T17:54:37;80.05;;;20.00;;
22565;SDS011;11449;51.330;19.378;2022-10-16T17:59:39;76.80;;;20.88;;
22565;SDS011;11449;51.330;19.378;2022-10-16T18:04:40;72.35;;;20.55;;
22565;SDS011;11449;51.330;19.378;2022-10-16T18:09:41;73.78;;;24.60;;
22565;SDS011;11449;51.330;19.378;2022-10-16T18:14:42;89.45;;;27.82;;
22565;SDS011;11449;51.330;19.378;2022-10-16T18:19:43;84.22;;;22.27;;
22565;SDS011;11449;51.330;19.378;2022-10-16T18:24:44;89.22;;;26.75;;
22565;SDS011;11449;51.330;19.378;2022-10-16T18:29:45;83.30;;;21.00;;
22565;SDS011;11449;51.330;19.378;2022-10-16T18:34:47;78.45;;;19.95;;
22565;SDS011;11449;51.330;19.378;2022-10-16T18:39:48;85.83;;;21.60;;
22565;SDS011;11449;51.330;19.378;2022-10-16T18:44:49;80.57;;;21.45;;
22565;SDS011;11449;51.330;19.378;2022-10-16T18:49:50;84.83;;;22.55;;
22565;SDS011;11449;51.330;19.378;2022-10-16T18:54:54;85.35;;;23.30;;
22565;SDS011;11449;51.330;19.378;2022-10-16T18:59:55;76.20;;;21.42;;
22565;SDS011;11449;51.330;19.378;2022-10-16T19:04:56;82.78;;;20.65;;
22565;SDS011;11449;51.330;19.378;2022-10-16T19:09:57;82.82;;;20.97;;
22565;SDS011;11449;51.330;19.378;2022-10-16T19:14:57;82.45;;;25.12;;
22565;SDS011;11449;51.330;19.378;2022-10-16T19:19:58;101.87;;;29.05;;
22565;SDS011;11449;51.330;19.378;2022-10-16T19:24:59;104.80;;;26.52;;
22565;SDS011;11449;51.330;19.378;2022-10-16T19:30:00;78.25;;;21.93;;
22565;SDS011;11449;51.330;19.378;2022-10-16T19:35:01;98.27;;;53.75;;
22565;SDS011;11449;51.330;19.378;2022-10-16T19:40:03;91.95;;;30.92;;
22565;SDS011;11449;51.330;19.378;2022-10-16T19:45:05;100.15;;;30.23;;
22565;SDS011;11449;51.330;19.378;2022-10-16T19:50:06;95.70;;;27.30;;
22565;SDS011;11449;51.330;19.378;2022-10-16T19:55:09;99.22;;;35.03;;
22565;SDS011;11449;51.330;19.378;2022-10-16T20:00:10;103.05;;;45.15;;
22565;SDS011;11449;51.330;19.378;2022-10-16T20:05:11;78.78;;;35.90;;
22565;SDS011;11449;51.330;19.378;2022-10-16T20:10:12;82.78;;;31.05;;
22565;SDS011;11449;51.330;19.378;2022-10-16T20:15:13;261.80;;;91.28;;
22565;SDS011;11449;51.330;19.378;2022-10-16T20:20:14;138.75;;;50.40;;
22565;SDS011;11449;51.330;19.378;2022-10-16T20:25:15;161.62;;;60.52;;
22565;SDS011;11449;51.330;19.378;2022-10-16T20:30:16;120.42;;;59.98;;
22565;SDS011;11449;51.330;19.378;2022-10-16T20:35:17;121.22;;;54.27;;
22565;SDS011;11449;51.330;19.378;2022-10-16T20:40:18;157.00;;;65.47;;
22565;SDS011;11449;51.330;19.378;2022-10-16T20:45:19;95.22;;;34.30;;
22565;SDS011;11449;51.330;19.378;2022-10-16T20:50:20;98.25;;;30.30;;
22565;SDS011;11449;51.330;19.378;2022-10-16T20:55:21;76.92;;;34.38;;
22565;SDS011;11449;51.330;19.378;2022-10-16T21:00:22;100.42;;;36.58;;
22565;SDS011;11449;51.330;19.378;2022-10-16T21:05:23;96.85;;;34.23;;
22565;SDS011;11449;51.330;19.378;2022-10-16T21:10:28;100.82;;;38.00;;
22565;SDS011;11449;51.330;19.378;2022-10-16T21:15:29;83.45;;;34.95;;
22565;SDS011;11449;51.330;19.378;2022-10-16T21:20:29;82.90;;;24.98;;
22565;SDS011;11449;51.330;19.378;2022-10-16T21:25:30;88.52;;;26.27;;
22565;SDS011;11449;51.330;19.378;2022-10-16T21:30:31;95.12;;;28.38;;
22565;SDS011;11449;51.330;19.378;2022-10-16T21:35:32;96.35;;;30.50;;
22565;SDS011;11449;51.330;19.378;2022-10-16T21:40:33;111.72;;;29.92;;
22565;SDS011;11449;51.330;19.378;2022-10-16T21:45:34;93.05;;;26.75;;
22565;SDS011;11449;51.330;19.378;2022-10-16T21:50:35;101.97;;;29.45;;
22565;SDS011;11449;51.330;19.378;2022-10-16T21:55:35;96.30;;;39.60;;
22565;SDS011;11449;51.330;19.378;2022-10-16T22:00:37;111.62;;;49.50;;
22565;SDS011;11449;51.330;19.378;2022-10-16T22:05:38;87.65;;;35.15;;
22565;SDS011;11449;51.330;19.378;2022-10-16T22:10:38;105.15;;;34.13;;
22565;SDS011;11449;51.330;19.378;2022-10-16T22:15:46;79.10;;;36.65;;
22565;SDS011;11449;51.330;19.378;2022-10-16T22:20:45;126.50;;;59.95;;
22565;SDS011;11449;51.330;19.378;2022-10-16T22:25:46;107.40;;;42.05;;
22565;SDS011;11449;51.330;19.378;2022-10-16T22:30:47;119.37;;;37.63;;
22565;SDS011;11449;51.330;19.378;2022-10-16T22:35:48;82.20;;;23.62;;
22565;SDS011;11449;51.330;19.378;2022-10-16T22:40:49;82.70;;;25.43;;
22565;SDS011;11449;51.330;19.378;2022-10-16T22:45:50;81.82;;;23.00;;
22565;SDS011;11449;51.330;19.378;2022-10-16T22:50:51;121.07;;;28.73;;
22565;SDS011;11449;51.330;19.378;2022-10-16T22:55:52;82.67;;;27.58;;
22565;SDS011;11449;51.330;19.378;2022-10-16T23:00:53;123.75;;;30.50;;
22565;SDS011;11449;51.330;19.378;2022-10-16T23:05:54;108.80;;;28.40;;
22565;SDS011;11449;51.330;19.378;2022-10-16T23:10:55;125.22;;;31.02;;
22565;SDS011;11449;51.330;19.378;2022-10-16T23:15:59;87.85;;;25.80;;
22565;SDS011;11449;51.330;19.378;2022-10-16T23:21:03;86.78;;;26.02;;
22565;SDS011;11449;51.330;19.378;2022-10-16T23:26:03;84.13;;;23.22;;
22565;SDS011;11449;51.330;19.378;2022-10-16T23:31:04;83.27;;;23.55;;
22565;SDS011;11449;51.330;19.378;2022-10-16T23:36:09;81.85;;;24.00;;
22565;SDS011;11449;51.330;19.378;2022-10-16T23:41:09;85.87;;;23.73;;
22565;SDS011;11449;51.330;19.378;2022-10-16T23:46:10;82.92;;;23.38;;
22565;SDS011;11449;51.330;19.378;2022-10-16T23:51:11;83.97;;;23.60;;
22565;SDS011;11449;51.330;19.378;2022-10-16T23:56:13;82.33;;;23.60;;
